Time,TemperatureF,DewpointF,PressureIn,WindDirection,WindDirectionDegrees,WindSpeedMPH,WindSpeedGustMPH,Humidity,HourlyPrecipIn,Conditions,Clouds,dailyrainin,SolarRadiationWatts/m^2,SoftwareType,DateUTC
2013-02-11 00:22:00,20.0,19.0,-100.00,North,-999,-999.0,3.0,96,0.00,,,-99.99,0.000000,,2013-02-11 07:22:00,
2013-02-11 00:32:00,20.0,19.0,-100.00,North,-999,-999.0,2.0,96,0.00,,,-99.99,0.000000,,2013-02-11 07:32:00,
2013-02-11 00:42:00,20.0,20.0,-100.00,North,-999,-999.0,2.0,97,0.00,,,-99.99,0.000000,,2013-02-11 07:42:00,
2013-02-11 00:52:00,21.0,20.0,-100.00,North,-999,-999.0,0.0,97,0.00,,,-99.99,0.000000,,2013-02-11 07:52:00,
2013-02-11 01:01:00,21.0,20.0,-100.00,North,-999,-999.0,2.0,96,0.00,,,-99.99,0.000000,,2013-02-11 08:01:00,
2013-02-11 01:11:00,21.0,20.0,-100.00,North,-999,-999.0,2.0,96,0.00,,,-99.99,0.000000,,2013-02-11 08:11:00,
2013-02-11 01:21:00,21.0,20.0,-100.00,North,-999,-999.0,2.0,96,0.00,,,-99.99,0.000000,,2013-02-11 08:21:00,
2013-02-11 01:31:00,20.0,18.0,-100.00,North,-999,-999.0,3.0,95,0.00,,,-99.99,0.000000,,2013-02-11 08:31:00,
2013-02-11 01:42:00,20.0,19.0,-100.00,North,-999,-999.0,3.0,96,0.00,,,-99.99,0.000000,,2013-02-11 08:42:00,
2013-02-11 01:51:00,20.0,19.0,-100.00,North,-999,-999.0,2.0,96,0.00,,,-99.99,0.000000,,2013-02-11 08:51:00,
2013-02-11 02:01:00,20.0,19.0,-100.00,North,-999,-999.0,3.0,96,0.00,,,-99.99,0.000000,,2013-02-11 09:01:00,
2013-02-11 02:12:00,20.0,20.0,-100.00,North,-999,-999.0,0.0,96,0.00,,,-99.99,0.000000,,2013-02-11 09:12:00,
2013-02-11 02:21:00,21.0,20.0,-100.00,North,-999,-999.0,3.0,96,0.00,,,-99.99,0.000000,,2013-02-11 09:21:00,
2013-02-11 02:31:00,21.0,20.0,-100.00,North,-999,-999.0,3.0,95,0.00,,,-99.99,0.000000,,2013-02-11 09:31:00,
2013-02-11 02:41:00,20.0,19.0,-100.00,North,-999,-999.0,3.0,96,0.00,,,-99.99,0.000000,,2013-02-11 09:41:00,
2013-02-11 02:51:00,20.0,19.0,-100.00,North,-999,-999.0,0.0,96,0.00,,,-99.99,0.000000,,2013-02-11 09:51:00,
2013-02-11 03:01:00,20.0,19.0,-100.00,North,-999,-999.0,2.0,95,0.00,,,-99.99,0.000000,,2013-02-11 10:01:00,
2013-02-11 03:11:00,20.0,19.0,-100.00,North,-999,-999.0,2.0,96,0.00,,,-99.99,0.000000,,2013-02-11 10:11:00,
2013-02-11 03:21:00,19.0,18.0,-100.00,North,-999,-999.0,2.0,95,0.00,,,-99.99,0.000000,,2013-02-11 10:21:00,
2013-02-11 03:31:00,19.0,17.0,-100.00,North,-999,-999.0,3.0,95,0.00,,,-99.99,0.000000,,2013-02-11 10:31:00,
2013-02-11 03:41:00,18.0,17.0,-100.00,North,-999,-999.0,3.0,95,0.00,,,-99.99,0.000000,,2013-02-11 10:41:00,
2013-02-11 03:50:00,19.0,18.0,-100.00,North,-999,-999.0,3.0,96,0.00,,,-99.99,0.000000,,2013-02-11 10:50:00,
2013-02-11 03:51:00,19.0,18.0,-100.00,North,-999,-999.0,2.0,96,0.00,,,-99.99,0.000000,,2013-02-11 10:51:00,
2013-02-11 04:01:00,19.0,18.0,-100.00,North,-999,-999.0,3.0,96,0.00,,,-99.99,0.000000,,2013-02-11 11:01:00,
2013-02-11 04:11:00,19.0,18.0,-100.00,North,-999,-999.0,3.0,96,0.00,,,-99.99,0.000000,,2013-02-11 11:11:00,
2013-02-11 04:21:00,19.0,18.0,-100.00,North,-999,-999.0,3.0,96,0.00,,,-99.99,0.000000,,2013-02-11 11:21:00,
2013-02-11 04:32:00,19.0,18.0,-100.00,North,-999,-999.0,3.0,96,0.00,,,-99.99,0.000000,,2013-02-11 11:32:00,
2013-02-11 04:42:00,19.0,18.0,-100.00,North,-999,-999.0,3.0,96,0.00,,,-99.99,0.000000,,2013-02-11 11:42:00,
2013-02-11 05:22:00,20.0,19.0,-100.00,North,-999,-999.0,2.0,96,0.00,,,-99.99,0.000000,,2013-02-11 12:22:00,
2013-02-11 05:32:00,20.0,19.0,-100.00,North,-999,-999.0,0.0,96,0.00,,,-99.99,0.000000,,2013-02-11 12:32:00,
2013-02-11 05:42:00,20.0,19.0,-100.00,North,-999,-999.0,0.0,96,0.00,,,-99.99,0.000000,,2013-02-11 12:42:00,
2013-02-11 05:52:00,20.0,19.0,-100.00,North,-999,-999.0,3.0,96,0.00,,,-99.99,0.000000,,2013-02-11 12:52:00,
2013-02-11 06:01:00,20.0,19.0,-100.00,North,-999,-999.0,4.0,96,0.00,,,-99.99,0.000000,,2013-02-11 13:01:00,
2013-02-11 06:11:00,20.0,19.0,-100.00,North,-999,-999.0,4.0,96,0.00,,,-99.99,0.000000,,2013-02-11 13:11:00,
2013-02-11 06:21:00,20.0,19.0,-100.00,North,-999,-999.0,3.0,96,0.00,,,-99.99,0.000000,,2013-02-11 13:21:00,
2013-02-11 06:32:00,20.0,19.0,-100.00,North,-999,-999.0,2.0,96,0.00,,,-99.99,0.000000,,2013-02-11 13:32:00,
2013-02-11 06:41:00,20.0,19.0,-100.00,North,-999,-999.0,0.0,96,0.00,,,-99.99,0.000000,,2013-02-11 13:41:00,
2013-02-11 06:51:00,20.0,19.0,-100.00,North,-999,-999.0,2.0,96,0.00,,,-99.99,0.000000,,2013-02-11 13:51:00,
2013-02-11 07:01:00,20.0,19.0,-100.00,North,-999,-999.0,2.0,96,0.00,,,-99.99,0.000000,,2013-02-11 14:01:00,
2013-02-11 07:11:00,19.0,18.0,-100.00,North,-999,-999.0,2.0,96,0.00,,,-99.99,0.000000,,2013-02-11 14:11:00,
2013-02-11 07:21:00,19.0,18.0,-100.00,North,-999,-999.0,4.0,96,0.00,,,-99.99,0.000000,,2013-02-11 14:21:00,
2013-02-11 07:32:00,19.0,18.0,-100.00,North,-999,-999.0,3.0,96,0.00,,,-99.99,0.000000,,2013-02-11 14:32:00,
2013-02-11 07:41:00,20.0,19.0,-100.00,North,-999,-999.0,2.0,96,0.00,,,-99.99,2.000000,,2013-02-11 14:41:00,
2013-02-11 07:52:00,19.0,18.0,-100.00,North,-999,-999.0,2.0,96,0.00,,,-99.99,6.000000,,2013-02-11 14:52:00,
2013-02-11 08:01:00,19.0,18.0,-100.00,North,-999,-999.0,2.0,96,0.00,,,-99.99,13.000000,,2013-02-11 15:01:00,
2013-02-11 08:11:00,20.0,19.0,-100.00,North,-999,-999.0,2.0,96,0.00,,,-99.99,17.000000,,2013-02-11 15:11:00,
2013-02-11 08:21:00,19.0,18.0,-100.00,North,-999,-999.0,2.0,96,0.00,,,-99.99,21.000000,,2013-02-11 15:21:00,
2013-02-11 08:31:00,20.0,19.0,-100.00,North,-999,-999.0,3.0,96,0.00,,,-99.99,38.000000,,2013-02-11 15:31:00,
2013-02-11 08:42:00,20.0,19.0,-100.00,North,-999,-999.0,4.0,96,0.00,,,-99.99,40.000000,,2013-02-11 15:42:00,
2013-02-11 08:50:00,22.0,21.0,-100.00,North,-999,-999.0,3.0,96,0.00,,,-99.99,131.000000,,2013-02-11 15:50:00,
2013-02-11 08:51:00,20.0,19.0,-100.00,North,-999,-999.0,5.0,95,0.00,,,-99.99,39.000000,,2013-02-11 15:51:00,
2013-02-11 09:01:00,20.0,19.0,-100.00,North,-999,-999.0,4.0,95,0.00,,,-99.99,64.000000,,2013-02-11 16:01:00,
2013-02-11 09:11:00,22.0,21.0,-100.00,North,-999,-999.0,3.0,96,0.00,,,-99.99,131.000000,,2013-02-11 16:11:00,
2013-02-11 09:21:00,22.0,21.0,-100.00,North,-999,-999.0,3.0,96,0.00,,,-99.99,131.000000,,2013-02-11 16:21:00,
2013-02-11 09:31:00,22.0,21.0,-100.00,North,-999,-999.0,3.0,96,0.00,,,-99.99,131.000000,,2013-02-11 16:31:00,
2013-02-11 09:42:00,22.0,21.0,-100.00,North,-999,-999.0,3.0,96,0.00,,,-99.99,131.000000,,2013-02-11 16:42:00,
2013-02-11 10:22:00,23.0,18.0,-100.00,North,-999,-999.0,2.0,79,0.00,,,-99.99,187.000000,,2013-02-11 17:22:00,
2013-02-11 10:32:00,27.0,22.0,-100.00,North,-999,-999.0,2.0,80,0.00,,,-99.99,291.000000,,2013-02-11 17:32:00,
2013-02-11 10:42:00,29.0,19.0,-100.00,North,-999,-999.0,4.0,66,0.00,,,-99.99,311.000000,,2013-02-11 17:42:00,
2013-02-11 10:52:00,28.0,20.0,-100.00,North,-999,-999.0,4.0,70,0.00,,,-99.99,315.000000,,2013-02-11 17:52:00,
2013-02-11 11:01:00,30.0,19.0,-100.00,North,-999,-999.0,3.0,65,0.00,,,-99.99,401.000000,,2013-02-11 18:01:00,
2013-02-11 11:11:00,32.0,21.0,-100.00,North,-999,-999.0,3.0,62,0.00,,,-99.99,476.000000,,2013-02-11 18:11:00,
2013-02-11 11:21:00,34.0,20.0,-100.00,North,-999,-999.0,2.0,57,0.00,,,-99.99,580.000000,,2013-02-11 18:21:00,
2013-02-11 11:31:00,34.0,20.0,-100.00,North,-999,-999.0,2.0,56,0.00,,,-99.99,562.000000,,2013-02-11 18:31:00,
2013-02-11 11:41:00,34.0,19.0,-100.00,North,-999,-999.0,3.0,55,0.00,,,-99.99,571.000000,,2013-02-11 18:41:00,
2013-02-11 11:52:00,30.0,19.0,-100.00,North,-999,-999.0,4.0,64,0.00,,,-99.99,580.000000,,2013-02-11 18:52:00,
2013-02-11 12:01:00,27.0,18.0,-100.00,North,-999,-999.0,6.0,69,0.00,,,-99.99,496.000000,,2013-02-11 19:01:00,
2013-02-11 12:11:00,27.0,18.0,-100.00,North,-999,-999.0,6.0,71,0.00,,,-99.99,468.000000,,2013-02-11 19:11:00,
2013-02-11 12:21:00,27.0,20.0,-100.00,North,-999,-999.0,5.0,72,0.01,,,-99.99,586.000000,,2013-02-11 19:21:00,
2013-02-11 12:31:00,27.0,20.0,-100.00,North,-999,-999.0,5.0,72,0.01,,,-99.99,586.000000,,2013-02-11 19:31:00,
2013-02-11 12:41:00,27.0,20.0,-100.00,North,-999,-999.0,5.0,72,0.01,,,-99.99,586.000000,,2013-02-11 19:41:00,
2013-02-11 12:51:00,27.0,20.0,-100.00,North,-999,-999.0,5.0,72,0.01,,,-99.99,586.000000,,2013-02-11 19:51:00,
2013-02-11 13:01:00,28.0,19.0,-100.00,North,-999,-999.0,5.0,68,0.01,,,-99.99,671.000000,,2013-02-11 20:01:00,
2013-02-11 13:11:00,29.0,19.0,-100.00,North,-999,-999.0,5.0,65,0.01,,,-99.99,674.000000,,2013-02-11 20:11:00,
2013-02-11 13:21:00,29.0,19.0,-100.00,North,-999,-999.0,5.0,64,0.00,,,-99.99,706.000000,,2013-02-11 20:21:00,
2013-02-11 13:31:00,31.0,19.0,-100.00,North,-999,-999.0,5.0,61,0.00,,,-99.99,707.000000,,2013-02-11 20:31:00,
2013-02-11 13:41:00,30.0,18.0,-100.00,North,-999,-999.0,5.0,62,0.00,,,-99.99,712.000000,,2013-02-11 20:41:00,
2013-02-11 13:50:00,33.0,18.0,-100.00,North,-999,-999.0,5.0,55,0.00,,,-99.99,679.000000,,2013-02-11 20:50:00,
2013-02-11 13:52:00,31.0,17.0,-100.00,North,-999,-999.0,5.0,57,0.00,,,-99.99,701.000000,,2013-02-11 20:52:00,
2013-02-11 14:02:00,31.0,18.0,-100.00,North,-999,-999.0,4.0,58,0.00,,,-99.99,686.000000,,2013-02-11 21:02:00,
2013-02-11 14:11:00,33.0,18.0,-100.00,North,-999,-999.0,5.0,55,0.00,,,-99.99,679.000000,,2013-02-11 21:11:00,
2013-02-11 14:21:00,33.0,18.0,-100.00,North,-999,-999.0,5.0,55,0.00,,,-99.99,679.000000,,2013-02-11 21:21:00,
2013-02-11 14:31:00,33.0,18.0,-100.00,North,-999,-999.0,5.0,55,0.00,,,-99.99,679.000000,,2013-02-11 21:31:00,
2013-02-11 14:41:00,33.0,18.0,-100.00,North,-999,-999.0,5.0,55,0.00,,,-99.99,679.000000,,2013-02-11 21:41:00,
2013-02-11 15:22:00,29.0,17.0,-100.00,North,-999,-999.0,6.0,60,0.00,,,-99.99,438.000000,,2013-02-11 22:22:00,
2013-02-11 15:32:00,28.0,17.0,-100.00,North,-999,-999.0,6.0,61,0.00,,,-99.99,327.000000,,2013-02-11 22:32:00,
2013-02-11 15:42:00,29.0,17.0,-100.00,North,-999,-999.0,5.0,60,0.00,,,-99.99,263.000000,,2013-02-11 22:42:00,
2013-02-11 15:52:00,29.0,17.0,-100.00,North,-999,-999.0,6.0,61,0.00,,,-99.99,385.000000,,2013-02-11 22:52:00,
2013-02-11 16:01:00,29.0,17.0,-100.00,North,-999,-999.0,6.0,60,0.00,,,-99.99,471.000000,,2013-02-11 23:01:00,
2013-02-11 16:11:00,31.0,17.0,-100.00,North,-999,-999.0,7.0,57,0.00,,,-99.99,309.000000,,2013-02-11 23:11:00,
2013-02-11 16:21:00,29.0,18.0,-100.00,North,-999,-999.0,8.0,63,0.00,,,-99.99,277.000000,,2013-02-11 23:21:00,
2013-02-11 16:31:00,29.0,18.0,-100.00,North,-999,-999.0,7.0,65,0.00,,,-99.99,314.000000,,2013-02-11 23:31:00,
2013-02-11 16:41:00,29.0,18.0,-100.00,North,-999,-999.0,6.0,64,0.00,,,-99.99,267.000000,,2013-02-11 23:41:00,
2013-02-11 16:50:00,28.0,18.0,-100.00,North,-999,-999.0,5.0,66,0.00,,,-99.99,119.000000,,2013-02-11 23:50:00,
2013-02-11 16:51:00,29.0,18.0,-100.00,North,-999,-999.0,8.0,64,0.00,,,-99.99,206.000000,,2013-02-11 23:51:00,
2013-02-11 17:01:00,27.0,18.0,-100.00,North,-999,-999.0,6.0,66,0.00,,,-99.99,120.000000,,2013-02-12 00:01:00,
2013-02-11 17:11:00,28.0,18.0,-100.00,North,-999,-999.0,5.0,66,0.00,,,-99.99,119.000000,,2013-02-12 00:11:00,
2013-02-11 17:21:00,28.0,18.0,-100.00,North,-999,-999.0,5.0,66,0.00,,,-99.99,119.000000,,2013-02-12 00:21:00,
2013-02-11 17:31:00,28.0,18.0,-100.00,North,-999,-999.0,5.0,66,0.00,,,-99.99,119.000000,,2013-02-12 00:31:00,
2013-02-11 17:41:00,28.0,18.0,-100.00,North,-999,-999.0,5.0,66,0.00,,,-99.99,119.000000,,2013-02-12 00:41:00,
2013-02-11 18:01:00,25.0,18.0,-100.00,North,-999,-999.0,4.0,75,0.00,,,-99.99,21.000000,,2013-02-12 01:01:00,
2013-02-11 18:11:00,24.0,18.0,-100.00,North,-999,-999.0,3.0,77,0.00,,,-99.99,12.000000,,2013-02-12 01:11:00,
2013-02-11 18:21:00,22.0,17.0,-100.00,North,-999,-999.0,3.0,80,0.00,,,-99.99,6.000000,,2013-02-12 01:21:00,
2013-02-11 18:31:00,22.0,17.0,-100.00,North,-999,-999.0,5.0,82,0.00,,,-99.99,2.000000,,2013-02-12 01:31:00,
2013-02-11 18:41:00,20.0,16.0,-100.00,North,-999,-999.0,5.0,83,0.00,,,-99.99,0.000000,,2013-02-12 01:41:00,
2013-02-11 18:50:00,19.0,15.0,-100.00,North,-999,-999.0,4.0,87,0.00,,,-99.99,0.000000,,2013-02-12 01:50:00,
2013-02-11 18:51:00,20.0,14.0,-100.00,North,-999,-999.0,5.0,78,0.00,,,-99.99,0.000000,,2013-02-12 01:51:00,
2013-02-11 19:01:00,18.0,15.0,-100.00,North,-999,-999.0,4.0,85,0.00,,,-99.99,0.000000,,2013-02-12 02:01:00,
2013-02-11 19:11:00,19.0,15.0,-100.00,North,-999,-999.0,4.0,87,0.00,,,-99.99,0.000000,,2013-02-12 02:11:00,
2013-02-11 19:21:00,19.0,15.0,-100.00,North,-999,-999.0,4.0,87,0.00,,,-99.99,0.000000,,2013-02-12 02:21:00,
2013-02-11 19:31:00,19.0,15.0,-100.00,North,-999,-999.0,4.0,87,0.00,,,-99.99,0.000000,,2013-02-12 02:31:00,
2013-02-11 19:41:00,19.0,15.0,-100.00,North,-999,-999.0,4.0,87,0.00,,,-99.99,0.000000,,2013-02-12 02:41:00,
2013-02-11 20:21:00,20.0,19.0,-100.00,North,-999,-999.0,10.0,93,0.00,,,-99.99,0.000000,,2013-02-12 03:21:00,
2013-02-11 20:32:00,20.0,17.0,-100.00,North,-999,-999.0,9.0,91,0.00,,,-99.99,0.000000,,2013-02-12 03:32:00,
2013-02-11 20:42:00,20.0,18.0,-100.00,North,-999,-999.0,10.0,91,0.00,,,-99.99,0.000000,,2013-02-12 03:42:00,
2013-02-11 20:52:00,20.0,18.0,-100.00,North,-999,-999.0,12.0,90,0.00,,,-99.99,0.000000,,2013-02-12 03:52:00,
2013-02-11 21:01:00,20.0,17.0,-100.00,North,-999,-999.0,11.0,89,0.00,,,-99.99,0.000000,,2013-02-12 04:01:00,
2013-02-11 21:11:00,20.0,18.0,-100.00,North,-999,-999.0,11.0,89,0.00,,,-99.99,0.000000,,2013-02-12 04:11:00,
2013-02-11 21:21:00,21.0,18.0,-100.00,North,-999,-999.0,10.0,87,0.00,,,-99.99,0.000000,,2013-02-12 04:21:00,
2013-02-11 21:31:00,21.0,17.0,-100.00,North,-999,-999.0,10.0,87,0.00,,,-99.99,0.000000,,2013-02-12 04:31:00,
2013-02-11 21:41:00,20.0,17.0,-100.00,North,-999,-999.0,9.0,87,0.00,,,-99.99,0.000000,,2013-02-12 04:41:00,
2013-02-11 21:51:00,19.0,15.0,-100.00,North,-999,-999.0,6.0,85,0.00,,,-99.99,0.000000,,2013-02-12 04:51:00,
2013-02-11 22:01:00,18.0,15.0,-100.00,North,-999,-999.0,4.0,87,0.00,,,-99.99,0.000000,,2013-02-12 05:01:00,
2013-02-11 22:11:00,16.0,14.0,-100.00,North,-999,-999.0,5.0,91,0.00,,,-99.99,0.000000,,2013-02-12 05:11:00,
2013-02-11 22:21:00,17.0,15.0,-100.00,North,-999,-999.0,5.0,94,0.00,,,-99.99,0.000000,,2013-02-12 05:21:00,
2013-02-11 22:31:00,17.0,15.0,-100.00,North,-999,-999.0,4.0,92,0.00,,,-99.99,0.000000,,2013-02-12 05:31:00,
2013-02-11 22:41:00,17.0,16.0,-100.00,North,-999,-999.0,4.0,94,0.00,,,-99.99,0.000000,,2013-02-12 05:41:00,
2013-02-11 22:52:00,17.0,16.0,-100.00,North,-999,-999.0,4.0,94,0.00,,,-99.99,0.000000,,2013-02-12 05:52:00,
2013-02-11 23:01:00,16.0,14.0,-100.00,North,-999,-999.0,4.0,90,0.00,,,-99.99,0.000000,,2013-02-12 06:01:00,
2013-02-11 23:12:00,18.0,16.0,-100.00,North,-999,-999.0,4.0,93,0.00,,,-99.99,0.000000,,2013-02-12 06:12:00,
2013-02-11 23:21:00,17.0,15.0,-100.00,North,-999,-999.0,5.0,90,0.00,,,-99.99,0.000000,,2013-02-12 06:21:00,
2013-02-11 23:31:00,18.0,15.0,-100.00,North,-999,-999.0,6.0,90,0.00,,,-99.99,0.000000,,2013-02-12 06:31:00,
2013-02-11 23:42:00,18.0,15.0,-100.00,North,-999,-999.0,6.0,89,0.00,,,-99.99,0.000000,,2013-02-12 06:42:00,
2013-02-11 23:50:00,17.0,15.0,-100.00,North,-999,-999.0,8.0,91,0.00,,,-99.99,0.000000,,2013-02-12 06:50:00,
2013-02-11 23:51:00,18.0,15.0,-100.00,North,-999,-999.0,7.0,89,0.00,,,-99.99,0.000000,,2013-02-12 06:51:00,